KLBE

Arnold Palmer Regional Airport

Airport
ICAO code
KLBE
IATA Code
LBE
Summary
ICAO Region
NAM
ICAO Territory
Location

Latrobe, Pennsylvania

Serving
Westmoreland County
Elevation
1199 ft
Coordinates
40° 16' 22" N , 79° 24' 21" W
KCC
Airport WX
Cumulonimbus
Metar
KLBE 151647Z 31010KT 10SM SCT042 22/13 A2990

Description

Arnold Palmer Regional Airport is a public use airport located 2 nm southwest of the central business district of Latrobe, in Westmoreland County, Pennsylvania.

Runways

Designator Length Width Surface Rops
3/21 1096 23 ASP Yes/Yes
5/23 2134 30 ASP Yes/Yes

Airport map

Aerial View

SKYbrary Partners:

Safety knowledge contributed by: